Flight Track Log - Related Links

Times and Time Zones

All times are in EDT time to prevent confusion due to time zone crossing. See the N2895W flight status page for this flight to view local times or setup timezone preferences in your user account.

Time Position Orientation Groundspeed Altitude Reporting Facility
EDT Latitude Longitude Course Direction KTS MPH feet Rate Location/Type
Fri 11:05:38 AM 39.8167 -77.0833 336° Northwest 104 120 8,000  Level Potomac TRACON
Fri 11:07:44 AM 39.8739 -77.1169 336° Northwest 126 145 8,500 161 Climbing New York Center
Fri 11:08:44 AM 39.9189 -77.1347 343° North 138 159 8,500  Level New York Center
Fri 11:09:45 AM 39.9556 -77.1486 344° North 144 166 8,500 458 Level New York Center
Fri 11:10:42 AM 39.9922 -77.1656 341° North 138 159 9,400 454 Climbing New York Center
Fri 11:11:44 AM 40.0250 -77.1794 342° North 132 152 9,400  Level New York Center
Fri 11:12:43 AM 40.0719 -77.1975 344° North 144 166 9,400  Level New York Center
Fri 11:13:43 AM 40.1106 -77.2144 341° North 151 174 9,400 50 Level New York Center
Fri 11:14:42 AM 40.1575 -77.2350 341° North 157 181 9,500  Climbing New York Center
Fri 11:15:42 AM 40.1961 -77.2522 341° North 162 186 9,400 -50 Descending New York Center
Fri 11:16:43 AM 40.2431 -77.2703 344° North 162 186 9,400  Level New York Center
Fri 11:17:43 AM 40.2839 -77.2878 342° North 162 186 9,400  Level New York Center
Fri 11:18:42 AM 40.3306 -77.3086 341° North 162 186 9,400  Level New York Center
Fri 11:19:42 AM 40.3692 -77.3258 341° North 168 193 9,400  Level New York Center
Fri 11:20:43 AM 40.4181 -77.3467 342° North 162 186 9,400  Level New York Center
Fri 11:21:44 AM 40.4589 -77.3617 344° North 162 186 9,400  Level New York Center
Fri 11:22:42 AM 40.5036 -77.3822 341° North 162 186 9,400  Level New York Center
Fri 11:23:42 AM 40.5444 -77.3997 342° North 167 192 9,400  Level New York Center
Fri 11:24:43 AM 40.5911 -77.4208 341° North 167 192 9,400  Level New York Center
Fri 11:25:43 AM 40.6319 -77.4356 345° North 167 192 9,400 50 Level New York Center
Fri 11:26:44 AM 40.6789 -77.4567 341° North 167 192 9,500 50 Climbing New York Center
Fri 11:27:42 AM 40.7214 -77.4744 342° North 167 192 9,500  Level New York Center
Fri 11:28:42 AM 40.7642 -77.4922 343° North 167 192 9,500 -98 Level New York Center
Fri 11:29:44 AM 40.8131 -77.5136 342° North 167 192 9,300 -344 Descending New York Center
Fri 11:30:44 AM 40.8617 -77.5375 340° North 167 192 8,800 -300 Descending New York Center
Fri 11:31:44 AM 40.9067 -77.5558 343° North 167 192 8,700 -101 Descending New York Center
Fri 11:32:43 AM 40.9533 -77.5742 343° North 167 192 8,600 -50 Descending New York Center
Fri 11:33:43 AM 40.9964 -77.5894 345° North 162 186 8,600  Level New York Center
Fri 11:34:44 AM 41.0411 -77.6106 340° North 162 186 8,600  Level New York Center
Fri 11:35:44 AM 41.0836 -77.6286 342° North 162 186 8,600  Level New York Center
Fri 11:36:42 AM 41.1264 -77.6494 340° North 162 186 8,600  Level New York Center
Fri 11:37:43 AM 41.1689 -77.6675 342° North 162 186 8,600  Level New York Center
Fri 11:38:43 AM 41.2117 -77.6856 342° North 162 186 8,600  Level New York Center
Fri 11:40:56 AM 41.3053 -77.7222 344° North 168 193 8,600  Level Cleveland Center
Fri 11:41:56 AM 41.3472 -77.7425 340° North 168 193 8,600  Level Cleveland Center
Fri 11:42:56 AM 41.3894 -77.7628 340° North 168 193 8,600  Level Cleveland Center
Fri 11:43:56 AM 41.4339 -77.7831 341° North 168 193 8,600  Level Cleveland Center
Fri 11:44:56 AM 41.4781 -77.8006 343° North 168 193 8,600  Level Cleveland Center
Fri 11:45:56 AM 41.5203 -77.8236 338° Northwest 168 193 8,600  Level Cleveland Center
Fri 11:46:56 AM 41.5644 -77.8383 346° North 168 193 8,600  Level Cleveland Center
Fri 11:47:56 AM 41.6067 -77.8589 340° North 168 193 8,600 -50 Level Cleveland Center
Fri 11:48:56 AM 41.6508 -77.8792 341° North 168 193 8,500 -50 Descending Cleveland Center
Fri 11:49:56 AM 41.6950 -77.8967 344° North 168 193 8,500  Level Cleveland Center
Fri 11:50:56 AM 41.7414 -77.9172 342° North 168 193 8,500  Level Cleveland Center
Fri 11:51:56 AM 41.7856 -77.9319 346° North 168 193 8,500  Level Cleveland Center
Fri 11:52:56 AM 41.8339 -77.9522 343° North 168 193 8,500  Level Cleveland Center
Fri 11:53:56 AM 41.8783 -77.9756 339° North 168 193 8,500  Level Cleveland Center
Fri 11:54:56 AM 41.9267 -77.9958 343° North 175 201 8,500  Level Cleveland Center
Fri 11:55:56 AM 41.9708 -78.0164 341° North 170 196 8,500  Level Cleveland Center
Fri 11:56:56 AM 42.0150 -78.0342 343° North 170 196 8,500  Level Cleveland Center
Fri 11:57:56 AM 42.0572 -78.0522 342° North 170 196 8,500  Level Cleveland Center
Fri 11:58:56 AM 42.1036 -78.0728 342° North 170 196 8,500  Level Cleveland Center
Fri 11:59:56 AM 42.1478 -78.0933 341° North 170 196 8,500  Level Cleveland Center
Fri 12:00:56 PM 42.1919 -78.1142 341° North 170 196 8,500  Level Cleveland Center
Fri 12:01:56 PM 42.2361 -78.1319 343° North 170 196 8,500  Level Cleveland Center
Fri 12:02:56 PM 42.2803 -78.1528 341° North 170 196 8,500  Level Cleveland Center
Fri 12:03:56 PM 42.3247 -78.1736 341° North 170 196 8,500  Level Cleveland Center
Fri 12:04:56 PM 42.3708 -78.1914 344° North 170 196 8,500  Level Cleveland Center
Fri 12:05:56 PM 42.4150 -78.2122 341° North 170 196 8,500  Level Cleveland Center
Fri 12:06:56 PM 42.4592 -78.2303 343° North 170 196 8,500 -300 Level Cleveland Center
Fri 12:07:56 PM 42.5056 -78.2511 342° North 170 196 7,900 -650 Descending Cleveland Center
Fri 12:08:56 PM 42.5558 -78.2747 341° North 170 196 7,200 -700 Descending Cleveland Center
Fri 12:09:56 PM 42.6064 -78.2925 345° North 170 196 6,500 -750 Descending Cleveland Center
Fri 12:10:56 PM 42.6547 -78.3133 342° North 170 196 5,700 -750 Descending Cleveland Center
Fri 12:11:56 PM 42.7011 -78.3372 339° North 170 196 5,000 -700 Descending Cleveland Center
Fri 12:12:56 PM 42.7475 -78.3636 337° Northwest 170 196 4,300 -606 Descending Cleveland Center
Fri 12:15:14 PM 42.8500 -78.4000 345° North 166 191 3,000 -513 Descending Buffalo TRACON
Fri 12:16:15 PM 42.8833 -78.4167 340° North 159 183 2,600 -347 Descending Buffalo TRACON
Fri 12:17:15 PM 42.9333 -78.4333 346° North 156 180 2,300 -150 Descending Buffalo TRACON
Fri 12:18:15 PM 42.9667 -78.4667 324° Northwest 151 174 2,300 53 Level Buffalo TRACON
Fri 12:19:09 PM 43.0000 -78.4833 340° North 145 167 2,400 167 Climbing Buffalo TRACON
Fri 12:20:03 PM 43.0333 -78.5167 324° Northwest 142 163 2,600 -53 Climbing Buffalo TRACON
Fri 12:21:03 PM 43.0667 -78.4833 36° Northeast 142 163 2,300 -500 Descending Buffalo TRACON
Fri 12:22:03 PM 43.0333 -78.5000 200° South 132 152 1,600 -700 Descending Buffalo TRACON

Login

Don't have an account? Register now (free) for customized features, flight alerts, and more!